sensor_id;sensor_type;location;lat;lon;timestamp;P1;durP1;ratioP1;P2;durP2;ratioP2
7817;SDS011;3954;52.624;9.212;2022-10-22T00:02:17;8.63;;;7.73;;
7817;SDS011;3954;52.624;9.212;2022-10-22T00:04:46;9.27;;;7.27;;
7817;SDS011;3954;52.624;9.212;2022-10-22T00:07:13;11.50;;;7.97;;
7817;SDS011;3954;52.624;9.212;2022-10-22T00:09:39;10.60;;;7.30;;
7817;SDS011;3954;52.624;9.212;2022-10-22T00:12:05;13.17;;;7.93;;
7817;SDS011;3954;52.624;9.212;2022-10-22T00:14:31;10.57;;;7.93;;
7817;SDS011;3954;52.624;9.212;2022-10-22T00:16:59;12.03;;;8.87;;
7817;SDS011;3954;52.624;9.212;2022-10-22T00:19:25;9.67;;;7.90;;
7817;SDS011;3954;52.624;9.212;2022-10-22T00:21:51;10.47;;;7.07;;
7817;SDS011;3954;52.624;9.212;2022-10-22T00:24:17;6.77;;;6.17;;
7817;SDS011;3954;52.624;9.212;2022-10-22T00:26:43;8.37;;;7.40;;
7817;SDS011;3954;52.624;9.212;2022-10-22T00:29:09;7.27;;;6.63;;
7817;SDS011;3954;52.624;9.212;2022-10-22T00:31:35;7.73;;;6.20;;
7817;SDS011;3954;52.624;9.212;2022-10-22T00:34:02;6.80;;;6.13;;
7817;SDS011;3954;52.624;9.212;2022-10-22T00:36:28;5.80;;;5.30;;
7817;SDS011;3954;52.624;9.212;2022-10-22T00:38:54;9.83;;;6.73;;
7817;SDS011;3954;52.624;9.212;2022-10-22T00:41:20;6.67;;;6.00;;
7817;SDS011;3954;52.624;9.212;2022-10-22T00:43:53;7.93;;;6.57;;
7817;SDS011;3954;52.624;9.212;2022-10-22T00:46:20;8.70;;;6.70;;
7817;SDS011;3954;52.624;9.212;2022-10-22T00:48:46;11.63;;;7.13;;
7817;SDS011;3954;52.624;9.212;2022-10-22T00:51:13;8.30;;;7.50;;
7817;SDS011;3954;52.624;9.212;2022-10-22T00:53:41;10.73;;;8.23;;
7817;SDS011;3954;52.624;9.212;2022-10-22T00:56:07;8.53;;;7.60;;
7817;SDS011;3954;52.624;9.212;2022-10-22T00:58:35;7.37;;;6.67;;
7817;SDS011;3954;52.624;9.212;2022-10-22T01:01:01;7.37;;;6.60;;
7817;SDS011;3954;52.624;9.212;2022-10-22T01:03:28;6.37;;;5.77;;
7817;SDS011;3954;52.624;9.212;2022-10-22T01:05:55;6.87;;;6.00;;
7817;SDS011;3954;52.624;9.212;2022-10-22T01:08:24;6.70;;;6.10;;
7817;SDS011;3954;52.624;9.212;2022-10-22T01:10:53;7.50;;;5.43;;
7817;SDS011;3954;52.624;9.212;2022-10-22T01:13:23;9.47;;;5.67;;
7817;SDS011;3954;52.624;9.212;2022-10-22T01:15:54;6.57;;;5.40;;
7817;SDS011;3954;52.624;9.212;2022-10-22T01:18:23;7.33;;;6.50;;
7817;SDS011;3954;52.624;9.212;2022-10-22T01:20:53;8.90;;;6.80;;
7817;SDS011;3954;52.624;9.212;2022-10-22T01:23:31;10.77;;;7.47;;
7817;SDS011;3954;52.624;9.212;2022-10-22T01:26:02;10.37;;;7.43;;
7817;SDS011;3954;52.624;9.212;2022-10-22T01:28:43;10.17;;;7.80;;
7817;SDS011;3954;52.624;9.212;2022-10-22T01:31:13;9.20;;;8.13;;
7817;SDS011;3954;52.624;9.212;2022-10-22T01:33:40;9.60;;;8.60;;
7817;SDS011;3954;52.624;9.212;2022-10-22T01:36:07;11.57;;;9.17;;
7817;SDS011;3954;52.624;9.212;2022-10-22T01:38:33;9.83;;;8.57;;
7817;SDS011;3954;52.624;9.212;2022-10-22T01:40:59;9.27;;;8.37;;
7817;SDS011;3954;52.624;9.212;2022-10-22T01:43:25;8.80;;;8.00;;
7817;SDS011;3954;52.624;9.212;2022-10-22T01:45:53;7.57;;;6.87;;
7817;SDS011;3954;52.624;9.212;2022-10-22T01:48:24;8.83;;;7.60;;
7817;SDS011;3954;52.624;9.212;2022-10-22T01:53:37;8.67;;;7.80;;
7817;SDS011;3954;52.624;9.212;2022-10-22T01:56:08;12.00;;;8.40;;
7817;SDS011;3954;52.624;9.212;2022-10-22T01:58:39;9.63;;;8.27;;
7817;SDS011;3954;52.624;9.212;2022-10-22T02:01:11;10.03;;;8.40;;
7817;SDS011;3954;52.624;9.212;2022-10-22T02:03:39;9.30;;;7.77;;
7817;SDS011;3954;52.624;9.212;2022-10-22T02:06:08;9.47;;;8.33;;
7817;SDS011;3954;52.624;9.212;2022-10-22T02:08:35;10.20;;;7.83;;
7817;SDS011;3954;52.624;9.212;2022-10-22T02:11:02;8.30;;;7.00;;
7817;SDS011;3954;52.624;9.212;2022-10-22T02:13:29;9.00;;;7.10;;
7817;SDS011;3954;52.624;9.212;2022-10-22T02:15:57;9.70;;;7.50;;
7817;SDS011;3954;52.624;9.212;2022-10-22T02:18:27;7.90;;;7.13;;
7817;SDS011;3954;52.624;9.212;2022-10-22T02:20:54;6.30;;;5.70;;
7817;SDS011;3954;52.624;9.212;2022-10-22T02:23:20;13.10;;;7.97;;
7817;SDS011;3954;52.624;9.212;2022-10-22T02:25:47;9.13;;;8.23;;
7817;SDS011;3954;52.624;9.212;2022-10-22T02:28:15;8.00;;;7.23;;
7817;SDS011;3954;52.624;9.212;2022-10-22T02:30:45;10.47;;;7.93;;
7817;SDS011;3954;52.624;9.212;2022-10-22T02:33:14;9.67;;;8.67;;
7817;SDS011;3954;52.624;9.212;2022-10-22T02:35:42;10.20;;;9.03;;
7817;SDS011;3954;52.624;9.212;2022-10-22T02:38:09;8.77;;;7.97;;
7817;SDS011;3954;52.624;9.212;2022-10-22T02:40:36;13.37;;;8.57;;
7817;SDS011;3954;52.624;9.212;2022-10-22T02:43:02;12.53;;;9.07;;
7817;SDS011;3954;52.624;9.212;2022-10-22T02:45:29;10.73;;;8.57;;
7817;SDS011;3954;52.624;9.212;2022-10-22T02:47:55;13.30;;;9.33;;
7817;SDS011;3954;52.624;9.212;2022-10-22T02:50:21;12.40;;;8.93;;
7817;SDS011;3954;52.624;9.212;2022-10-22T02:52:48;10.20;;;9.20;;
7817;SDS011;3954;52.624;9.212;2022-10-22T02:55:14;8.90;;;8.00;;
7817;SDS011;3954;52.624;9.212;2022-10-22T02:57:40;9.83;;;8.90;;
7817;SDS011;3954;52.624;9.212;2022-10-22T03:00:08;8.83;;;7.83;;
7817;SDS011;3954;52.624;9.212;2022-10-22T03:02:34;8.57;;;7.77;;
7817;SDS011;3954;52.624;9.212;2022-10-22T03:05:00;14.97;;;9.43;;
7817;SDS011;3954;52.624;9.212;2022-10-22T03:07:26;10.53;;;9.30;;
7817;SDS011;3954;52.624;9.212;2022-10-22T03:09:53;10.47;;;9.37;;
7817;SDS011;3954;52.624;9.212;2022-10-22T03:12:19;14.07;;;9.03;;
7817;SDS011;3954;52.624;9.212;2022-10-22T03:14:45;10.37;;;8.50;;
7817;SDS011;3954;52.624;9.212;2022-10-22T03:17:11;10.90;;;8.57;;
7817;SDS011;3954;52.624;9.212;2022-10-22T03:19:37;11.20;;;9.27;;
7817;SDS011;3954;52.624;9.212;2022-10-22T03:22:04;10.50;;;9.10;;
7817;SDS011;3954;52.624;9.212;2022-10-22T03:24:33;9.33;;;8.17;;
7817;SDS011;3954;52.624;9.212;2022-10-22T03:27:01;9.40;;;7.60;;
7817;SDS011;3954;52.624;9.212;2022-10-22T03:29:27;9.70;;;8.57;;
7817;SDS011;3954;52.624;9.212;2022-10-22T03:31:54;12.67;;;8.57;;
7817;SDS011;3954;52.624;9.212;2022-10-22T03:34:20;11.80;;;8.33;;
7817;SDS011;3954;52.624;9.212;2022-10-22T03:36:46;11.00;;;8.97;;
7817;SDS011;3954;52.624;9.212;2022-10-22T03:39:12;11.17;;;9.00;;
7817;SDS011;3954;52.624;9.212;2022-10-22T03:41:39;10.20;;;8.73;;
7817;SDS011;3954;52.624;9.212;2022-10-22T03:44:07;9.20;;;8.30;;
7817;SDS011;3954;52.624;9.212;2022-10-22T03:46:33;9.60;;;8.30;;
7817;SDS011;3954;52.624;9.212;2022-10-22T03:48:59;9.10;;;8.20;;
7817;SDS011;3954;52.624;9.212;2022-10-22T03:51:26;8.80;;;8.00;;
7817;SDS011;3954;52.624;9.212;2022-10-22T03:53:52;10.30;;;9.20;;
7817;SDS011;3954;52.624;9.212;2022-10-22T03:56:18;10.77;;;9.67;;
7817;SDS011;3954;52.624;9.212;2022-10-22T03:58:44;13.10;;;9.43;;
7817;SDS011;3954;52.624;9.212;2022-10-22T04:01:12;11.87;;;9.50;;
7817;SDS011;3954;52.624;9.212;2022-10-22T04:03:38;12.47;;;9.93;;
7817;SDS011;3954;52.624;9.212;2022-10-22T04:06:05;11.50;;;8.97;;
7817;SDS011;3954;52.624;9.212;2022-10-22T04:08:32;11.90;;;9.67;;
7817;SDS011;3954;52.624;9.212;2022-10-22T04:10:58;10.20;;;9.17;;
7817;SDS011;3954;52.624;9.212;2022-10-22T04:13:24;12.23;;;10.10;;
7817;SDS011;3954;52.624;9.212;2022-10-22T04:15:50;9.17;;;8.27;;
7817;SDS011;3954;52.624;9.212;2022-10-22T04:18:18;12.20;;;10.03;;
7817;SDS011;3954;52.624;9.212;2022-10-22T04:20:44;8.03;;;7.33;;
7817;SDS011;3954;52.624;9.212;2022-10-22T04:23:10;10.83;;;7.33;;
7817;SDS011;3954;52.624;9.212;2022-10-22T04:25:36;6.83;;;6.17;;
7817;SDS011;3954;52.624;9.212;2022-10-22T04:28:04;7.53;;;6.73;;
7817;SDS011;3954;52.624;9.212;2022-10-22T04:30:31;7.83;;;7.13;;
7817;SDS011;3954;52.624;9.212;2022-10-22T04:32:57;6.87;;;6.27;;
7817;SDS011;3954;52.624;9.212;2022-10-22T04:35:24;11.13;;;7.10;;
7817;SDS011;3954;52.624;9.212;2022-10-22T04:37:50;7.13;;;6.50;;
7817;SDS011;3954;52.624;9.212;2022-10-22T04:40:16;8.33;;;6.53;;
7817;SDS011;3954;52.624;9.212;2022-10-22T04:42:42;8.27;;;6.87;;
7817;SDS011;3954;52.624;9.212;2022-10-22T04:45:08;8.30;;;6.70;;
7817;SDS011;3954;52.624;9.212;2022-10-22T04:47:35;6.90;;;6.30;;
7817;SDS011;3954;52.624;9.212;2022-10-22T04:50:01;9.43;;;7.40;;
7817;SDS011;3954;52.624;9.212;2022-10-22T04:52:28;9.20;;;7.97;;
7817;SDS011;3954;52.624;9.212;2022-10-22T04:54:55;7.13;;;6.40;;
7817;SDS011;3954;52.624;9.212;2022-10-22T04:57:21;7.10;;;5.93;;
7817;SDS011;3954;52.624;9.212;2022-10-22T04:59:47;7.37;;;6.67;;
7817;SDS011;3954;52.624;9.212;2022-10-22T05:02:13;6.50;;;5.90;;
7817;SDS011;3954;52.624;9.212;2022-10-22T05:04:39;7.27;;;6.57;;
7817;SDS011;3954;52.624;9.212;2022-10-22T05:07:05;6.63;;;5.87;;
7817;SDS011;3954;52.624;9.212;2022-10-22T05:09:32;6.27;;;5.67;;
7817;SDS011;3954;52.624;9.212;2022-10-22T05:11:58;6.17;;;4.83;;
7817;SDS011;3954;52.624;9.212;2022-10-22T05:14:24;5.30;;;4.80;;
7817;SDS011;3954;52.624;9.212;2022-10-22T05:16:51;6.53;;;5.93;;
7817;SDS011;3954;52.624;9.212;2022-10-22T05:19:18;5.60;;;5.10;;
7817;SDS011;3954;52.624;9.212;2022-10-22T05:21:45;5.27;;;4.77;;
7817;SDS011;3954;52.624;9.212;2022-10-22T05:24:11;7.70;;;5.73;;
7817;SDS011;3954;52.624;9.212;2022-10-22T05:26:39;9.27;;;7.10;;
7817;SDS011;3954;52.624;9.212;2022-10-22T05:29:05;7.47;;;5.97;;
7817;SDS011;3954;52.624;9.212;2022-10-22T05:31:31;6.60;;;5.47;;
7817;SDS011;3954;52.624;9.212;2022-10-22T05:33:57;6.67;;;4.77;;
7817;SDS011;3954;52.624;9.212;2022-10-22T05:36:23;6.27;;;4.80;;
7817;SDS011;3954;52.624;9.212;2022-10-22T05:38:49;5.30;;;4.80;;
7817;SDS011;3954;52.624;9.212;2022-10-22T05:41:16;4.77;;;4.30;;
7817;SDS011;3954;52.624;9.212;2022-10-22T05:43:43;4.57;;;4.17;;
7817;SDS011;3954;52.624;9.212;2022-10-22T05:46:10;5.90;;;4.13;;
7817;SDS011;3954;52.624;9.212;2022-10-22T05:48:37;5.50;;;5.00;;
7817;SDS011;3954;52.624;9.212;2022-10-22T05:51:03;4.87;;;4.47;;
7817;SDS011;3954;52.624;9.212;2022-10-22T05:53:30;6.50;;;5.90;;
7817;SDS011;3954;52.624;9.212;2022-10-22T05:55:58;10.53;;;8.90;;
7817;SDS011;3954;52.624;9.212;2022-10-22T05:58:24;10.53;;;9.03;;
7817;SDS011;3954;52.624;9.212;2022-10-22T06:00:51;6.37;;;5.77;;
7817;SDS011;3954;52.624;9.212;2022-10-22T06:03:17;6.83;;;5.93;;
7817;SDS011;3954;52.624;9.212;2022-10-22T06:05:43;6.67;;;5.97;;
7817;SDS011;3954;52.624;9.212;2022-10-22T06:08:09;6.80;;;6.20;;
7817;SDS011;3954;52.624;9.212;2022-10-22T06:10:36;7.03;;;6.43;;
7817;SDS011;3954;52.624;9.212;2022-10-22T06:13:04;11.33;;;8.53;;
7817;SDS011;3954;52.624;9.212;2022-10-22T06:15:32;11.07;;;9.87;;
7817;SDS011;3954;52.624;9.212;2022-10-22T06:17:59;10.93;;;9.83;;
7817;SDS011;3954;52.624;9.212;2022-10-22T06:20:26;10.37;;;8.63;;
7817;SDS011;3954;52.624;9.212;2022-10-22T06:22:52;11.63;;;10.27;;
7817;SDS011;3954;52.624;9.212;2022-10-22T06:25:18;9.60;;;8.63;;
7817;SDS011;3954;52.624;9.212;2022-10-22T06:27:47;11.33;;;8.53;;
7817;SDS011;3954;52.624;9.212;2022-10-22T06:30:14;8.07;;;7.27;;
7817;SDS011;3954;52.624;9.212;2022-10-22T06:32:40;10.30;;;6.97;;
7817;SDS011;3954;52.624;9.212;2022-10-22T06:35:08;7.27;;;6.57;;
7817;SDS011;3954;52.624;9.212;2022-10-22T06:37:34;7.07;;;6.20;;
7817;SDS011;3954;52.624;9.212;2022-10-22T06:40:00;10.23;;;6.70;;
7817;SDS011;3954;52.624;9.212;2022-10-22T06:42:26;9.90;;;6.30;;
7817;SDS011;3954;52.624;9.212;2022-10-22T06:44:52;9.00;;;6.87;;
7817;SDS011;3954;52.624;9.212;2022-10-22T06:47:18;8.23;;;5.97;;
7817;SDS011;3954;52.624;9.212;2022-10-22T06:49:44;6.93;;;6.33;;
7817;SDS011;3954;52.624;9.212;2022-10-22T06:52:11;8.30;;;7.37;;
7817;SDS011;3954;52.624;9.212;2022-10-22T06:54:37;12.50;;;10.43;;
7817;SDS011;3954;52.624;9.212;2022-10-22T06:57:03;8.40;;;7.50;;
7817;SDS011;3954;52.624;9.212;2022-10-22T06:59:29;9.97;;;8.97;;
7817;SDS011;3954;52.624;9.212;2022-10-22T07:01:55;14.97;;;12.57;;
7817;SDS011;3954;52.624;9.212;2022-10-22T07:04:21;35.63;;;30.43;;
7817;SDS011;3954;52.624;9.212;2022-10-22T07:06:47;32.40;;;27.63;;
7817;SDS011;3954;52.624;9.212;2022-10-22T07:09:15;15.37;;;12.17;;
7817;SDS011;3954;52.624;9.212;2022-10-22T07:11:41;12.17;;;11.00;;
7817;SDS011;3954;52.624;9.212;2022-10-22T07:14:08;13.70;;;10.77;;
7817;SDS011;3954;52.624;9.212;2022-10-22T07:16:34;13.13;;;9.40;;
7817;SDS011;3954;52.624;9.212;2022-10-22T07:19:02;9.23;;;8.00;;
7817;SDS011;3954;52.624;9.212;2022-10-22T07:21:29;12.67;;;7.20;;
7817;SDS011;3954;52.624;9.212;2022-10-22T07:23:55;11.60;;;8.20;;
7817;SDS011;3954;52.624;9.212;2022-10-22T07:26:24;11.27;;;7.70;;
7817;SDS011;3954;52.624;9.212;2022-10-22T07:28:52;10.17;;;6.93;;
7817;SDS011;3954;52.624;9.212;2022-10-22T07:31:18;8.57;;;7.13;;
7817;SDS011;3954;52.624;9.212;2022-10-22T07:33:44;9.03;;;6.23;;
7817;SDS011;3954;52.624;9.212;2022-10-22T07:36:11;7.07;;;5.97;;
7817;SDS011;3954;52.624;9.212;2022-10-22T07:38:41;5.97;;;5.37;;
7817;SDS011;3954;52.624;9.212;2022-10-22T07:41:08;7.60;;;5.97;;
7817;SDS011;3954;52.624;9.212;2022-10-22T07:43:35;8.37;;;5.53;;
7817;SDS011;3954;52.624;9.212;2022-10-22T07:46:01;8.43;;;4.90;;
7817;SDS011;3954;52.624;9.212;2022-10-22T07:48:28;5.80;;;4.90;;
7817;SDS011;3954;52.624;9.212;2022-10-22T07:50:54;5.33;;;4.80;;
7817;SDS011;3954;52.624;9.212;2022-10-22T07:53:22;8.80;;;4.87;;
7817;SDS011;3954;52.624;9.212;2022-10-22T07:55:48;4.50;;;4.10;;
7817;SDS011;3954;52.624;9.212;2022-10-22T07:58:18;6.73;;;4.03;;
7817;SDS011;3954;52.624;9.212;2022-10-22T08:00:45;6.00;;;3.90;;
7817;SDS011;3954;52.624;9.212;2022-10-22T08:03:11;4.00;;;3.23;;
7817;SDS011;3954;52.624;9.212;2022-10-22T08:05:38;4.27;;;2.93;;
7817;SDS011;3954;52.624;9.212;2022-10-22T08:08:04;5.90;;;3.13;;
7817;SDS011;3954;52.624;9.212;2022-10-22T08:10:30;4.03;;;3.00;;
7817;SDS011;3954;52.624;9.212;2022-10-22T08:12:56;4.50;;;2.67;;
7817;SDS011;3954;52.624;9.212;2022-10-22T08:15:22;5.17;;;3.13;;
7817;SDS011;3954;52.624;9.212;2022-10-22T08:17:51;4.00;;;2.30;;
7817;SDS011;3954;52.624;9.212;2022-10-22T08:20:18;3.17;;;2.30;;
7817;SDS011;3954;52.624;9.212;2022-10-22T08:22:44;4.53;;;2.30;;
7817;SDS011;3954;52.624;9.212;2022-10-22T08:25:10;5.07;;;2.40;;
7817;SDS011;3954;52.624;9.212;2022-10-22T08:27:36;4.40;;;2.00;;
7817;SDS011;3954;52.624;9.212;2022-10-22T08:30:03;2.53;;;2.10;;
7817;SDS011;3954;52.624;9.212;2022-10-22T08:32:29;3.50;;;2.00;;
7817;SDS011;3954;52.624;9.212;2022-10-22T08:34:57;3.40;;;1.97;;
7817;SDS011;3954;52.624;9.212;2022-10-22T08:37:23;4.87;;;2.10;;
7817;SDS011;3954;52.624;9.212;2022-10-22T08:39:49;6.13;;;2.00;;
7817;SDS011;3954;52.624;9.212;2022-10-22T08:42:23;6.20;;;2.03;;
7817;SDS011;3954;52.624;9.212;2022-10-22T08:44:59;2.87;;;1.73;;
7817;SDS011;3954;52.624;9.212;2022-10-22T08:47:33;6.53;;;1.90;;
7817;SDS011;3954;52.624;9.212;2022-10-22T08:50:03;2.97;;;2.00;;
7817;SDS011;3954;52.624;9.212;2022-10-22T08:52:29;2.27;;;1.63;;
7817;SDS011;3954;52.624;9.212;2022-10-22T08:54:57;2.50;;;1.83;;
7817;SDS011;3954;52.624;9.212;2022-10-22T08:57:31;4.30;;;1.90;;
7817;SDS011;3954;52.624;9.212;2022-10-22T09:00:03;4.43;;;2.27;;
7817;SDS011;3954;52.624;9.212;2022-10-22T09:02:32;6.63;;;2.07;;
7817;SDS011;3954;52.624;9.212;2022-10-22T09:05:01;2.47;;;1.77;;
7817;SDS011;3954;52.624;9.212;2022-10-22T09:07:30;9.17;;;2.20;;
7817;SDS011;3954;52.624;9.212;2022-10-22T09:09:56;2.90;;;1.80;;
7817;SDS011;3954;52.624;9.212;2022-10-22T09:12:24;5.27;;;2.27;;
7817;SDS011;3954;52.624;9.212;2022-10-22T09:14:51;5.40;;;1.80;;
7817;SDS011;3954;52.624;9.212;2022-10-22T09:17:19;4.90;;;2.27;;
7817;SDS011;3954;52.624;9.212;2022-10-22T09:19:48;2.57;;;1.70;;
7817;SDS011;3954;52.624;9.212;2022-10-22T09:22:21;4.93;;;2.13;;
7817;SDS011;3954;52.624;9.212;2022-10-22T09:24:54;3.93;;;2.00;;
7817;SDS011;3954;52.624;9.212;2022-10-22T09:27:26;5.10;;;2.10;;
7817;SDS011;3954;52.624;9.212;2022-10-22T09:29:52;4.67;;;2.00;;
7817;SDS011;3954;52.624;9.212;2022-10-22T09:32:18;4.60;;;2.00;;
7817;SDS011;3954;52.624;9.212;2022-10-22T09:34:45;4.27;;;2.53;;
7817;SDS011;3954;52.624;9.212;2022-10-22T09:37:11;7.93;;;2.60;;
7817;SDS011;3954;52.624;9.212;2022-10-22T09:39:43;13.90;;;10.80;;
7817;SDS011;3954;52.624;9.212;2022-10-22T09:42:10;20.63;;;16.03;;
7817;SDS011;3954;52.624;9.212;2022-10-22T09:44:38;6.73;;;3.60;;
7817;SDS011;3954;52.624;9.212;2022-10-22T09:47:05;6.77;;;2.17;;
7817;SDS011;3954;52.624;9.212;2022-10-22T09:49:32;3.70;;;2.10;;
7817;SDS011;3954;52.624;9.212;2022-10-22T09:51:59;7.63;;;2.40;;
7817;SDS011;3954;52.624;9.212;2022-10-22T09:54:28;6.37;;;3.70;;
7817;SDS011;3954;52.624;9.212;2022-10-22T09:57:03;2.57;;;2.00;;
7817;SDS011;3954;52.624;9.212;2022-10-22T09:59:31;6.07;;;2.10;;
7817;SDS011;3954;52.624;9.212;2022-10-22T10:01:58;7.73;;;4.30;;
7817;SDS011;3954;52.624;9.212;2022-10-22T10:04:25;9.30;;;2.40;;
7817;SDS011;3954;52.624;9.212;2022-10-22T10:06:52;6.50;;;2.80;;
7817;SDS011;3954;52.624;9.212;2022-10-22T10:09:19;8.83;;;2.90;;
7817;SDS011;3954;52.624;9.212;2022-10-22T10:11:47;3.63;;;2.30;;
7817;SDS011;3954;52.624;9.212;2022-10-22T10:14:14;4.70;;;2.30;;
7817;SDS011;3954;52.624;9.212;2022-10-22T10:16:47;4.33;;;2.20;;
7817;SDS011;3954;52.624;9.212;2022-10-22T10:19:29;4.27;;;2.37;;
7817;SDS011;3954;52.624;9.212;2022-10-22T10:22:00;5.93;;;2.47;;
7817;SDS011;3954;52.624;9.212;2022-10-22T10:24:30;4.27;;;2.40;;
7817;SDS011;3954;52.624;9.212;2022-10-22T10:27:04;6.20;;;2.60;;
7817;SDS011;3954;52.624;9.212;2022-10-22T10:29:40;4.57;;;2.10;;
7817;SDS011;3954;52.624;9.212;2022-10-22T10:32:15;7.47;;;2.47;;
7817;SDS011;3954;52.624;9.212;2022-10-22T10:34:45;5.63;;;2.43;;
7817;SDS011;3954;52.624;9.212;2022-10-22T10:37:14;5.80;;;2.43;;
7817;SDS011;3954;52.624;9.212;2022-10-22T10:39:45;5.23;;;2.70;;
7817;SDS011;3954;52.624;9.212;2022-10-22T10:42:18;5.07;;;2.73;;
7817;SDS011;3954;52.624;9.212;2022-10-22T10:44:48;7.43;;;2.93;;
7817;SDS011;3954;52.624;9.212;2022-10-22T10:47:20;3.80;;;2.07;;
7817;SDS011;3954;52.624;9.212;2022-10-22T10:49:50;4.80;;;2.30;;
7817;SDS011;3954;52.624;9.212;2022-10-22T10:52:19;4.57;;;2.37;;
7817;SDS011;3954;52.624;9.212;2022-10-22T10:54:49;5.30;;;2.67;;
7817;SDS011;3954;52.624;9.212;2022-10-22T10:57:21;3.57;;;2.23;;
7817;SDS011;3954;52.624;9.212;2022-10-22T10:59:53;5.03;;;2.90;;
7817;SDS011;3954;52.624;9.212;2022-10-22T11:02:31;5.13;;;2.70;;
7817;SDS011;3954;52.624;9.212;2022-10-22T11:07:46;4.13;;;2.50;;
7817;SDS011;3954;52.624;9.212;2022-10-22T11:10:26;4.97;;;2.23;;
7817;SDS011;3954;52.624;9.212;2022-10-22T11:12:54;4.67;;;2.40;;
7817;SDS011;3954;52.624;9.212;2022-10-22T11:15:24;6.63;;;2.83;;
7817;SDS011;3954;52.624;9.212;2022-10-22T11:17:53;5.20;;;2.37;;
7817;SDS011;3954;52.624;9.212;2022-10-22T11:20:21;5.73;;;2.63;;
7817;SDS011;3954;52.624;9.212;2022-10-22T11:22:50;7.03;;;3.10;;
7817;SDS011;3954;52.624;9.212;2022-10-22T11:25:20;5.57;;;2.50;;
7817;SDS011;3954;52.624;9.212;2022-10-22T11:27:47;7.43;;;2.70;;
7817;SDS011;3954;52.624;9.212;2022-10-22T11:30:16;5.77;;;2.20;;
7817;SDS011;3954;52.624;9.212;2022-10-22T11:32:42;7.63;;;2.60;;
7817;SDS011;3954;52.624;9.212;2022-10-22T11:35:13;8.10;;;2.63;;
7817;SDS011;3954;52.624;9.212;2022-10-22T11:37:40;6.10;;;2.40;;
7817;SDS011;3954;52.624;9.212;2022-10-22T11:40:10;6.10;;;2.20;;
7817;SDS011;3954;52.624;9.212;2022-10-22T11:42:40;5.27;;;2.33;;
7817;SDS011;3954;52.624;9.212;2022-10-22T11:47:52;7.37;;;2.80;;
7817;SDS011;3954;52.624;9.212;2022-10-22T11:50:23;6.10;;;2.23;;
7817;SDS011;3954;52.624;9.212;2022-10-22T11:52:54;6.30;;;2.60;;
7817;SDS011;3954;52.624;9.212;2022-10-22T11:55:41;5.63;;;2.20;;
7817;SDS011;3954;52.624;9.212;2022-10-22T12:01:20;5.60;;;2.43;;
7817;SDS011;3954;52.624;9.212;2022-10-22T12:03:47;7.20;;;2.30;;
7817;SDS011;3954;52.624;9.212;2022-10-22T12:06:17;7.90;;;2.70;;
7817;SDS011;3954;52.624;9.212;2022-10-22T12:08:45;6.17;;;2.50;;
7817;SDS011;3954;52.624;9.212;2022-10-22T12:11:15;5.57;;;2.20;;
7817;SDS011;3954;52.624;9.212;2022-10-22T12:16:43;5.43;;;2.43;;
7817;SDS011;3954;52.624;9.212;2022-10-22T12:19:11;6.87;;;2.67;;
7817;SDS011;3954;52.624;9.212;2022-10-22T12:21:40;5.77;;;2.40;;
7817;SDS011;3954;52.624;9.212;2022-10-22T12:24:08;5.63;;;2.10;;
7817;SDS011;3954;52.624;9.212;2022-10-22T12:26:37;3.57;;;2.13;;
7817;SDS011;3954;52.624;9.212;2022-10-22T12:29:05;5.03;;;2.20;;
7817;SDS011;3954;52.624;9.212;2022-10-22T12:31:34;5.57;;;2.00;;
7817;SDS011;3954;52.624;9.212;2022-10-22T12:34:01;4.27;;;2.00;;
7817;SDS011;3954;52.624;9.212;2022-10-22T12:36:27;4.67;;;1.80;;
7817;SDS011;3954;52.624;9.212;2022-10-22T12:38:55;5.50;;;2.40;;
7817;SDS011;3954;52.624;9.212;2022-10-22T12:41:28;8.90;;;2.13;;
7817;SDS011;3954;52.624;9.212;2022-10-22T12:43:57;5.87;;;1.90;;
7817;SDS011;3954;52.624;9.212;2022-10-22T12:46:23;3.80;;;2.10;;
7817;SDS011;3954;52.624;9.212;2022-10-22T12:48:49;6.80;;;2.10;;
7817;SDS011;3954;52.624;9.212;2022-10-22T12:51:16;3.20;;;2.10;;
7817;SDS011;3954;52.624;9.212;2022-10-22T12:53:44;4.10;;;1.60;;
7817;SDS011;3954;52.624;9.212;2022-10-22T12:56:13;4.37;;;1.60;;
7817;SDS011;3954;52.624;9.212;2022-10-22T12:58:41;3.80;;;1.90;;
7817;SDS011;3954;52.624;9.212;2022-10-22T13:01:08;3.63;;;1.80;;
7817;SDS011;3954;52.624;9.212;2022-10-22T13:03:38;2.47;;;1.60;;
7817;SDS011;3954;52.624;9.212;2022-10-22T13:06:11;3.77;;;1.87;;
7817;SDS011;3954;52.624;9.212;2022-10-22T13:08:38;3.87;;;1.90;;
7817;SDS011;3954;52.624;9.212;2022-10-22T13:11:05;3.30;;;1.77;;
7817;SDS011;3954;52.624;9.212;2022-10-22T13:13:39;4.53;;;2.03;;
7817;SDS011;3954;52.624;9.212;2022-10-22T13:16:19;4.80;;;2.10;;
7817;SDS011;3954;52.624;9.212;2022-10-22T13:18:46;5.10;;;1.90;;
7817;SDS011;3954;52.624;9.212;2022-10-22T13:21:23;5.73;;;1.97;;
7817;SDS011;3954;52.624;9.212;2022-10-22T13:23:51;3.63;;;1.87;;
7817;SDS011;3954;52.624;9.212;2022-10-22T13:26:17;6.33;;;1.90;;
7817;SDS011;3954;52.624;9.212;2022-10-22T13:28:49;4.37;;;1.80;;
7817;SDS011;3954;52.624;9.212;2022-10-22T13:31:17;3.67;;;1.43;;
7817;SDS011;3954;52.624;9.212;2022-10-22T13:33:43;5.43;;;1.70;;
7817;SDS011;3954;52.624;9.212;2022-10-22T13:36:11;3.50;;;1.60;;
7817;SDS011;3954;52.624;9.212;2022-10-22T13:38:37;2.50;;;1.40;;
7817;SDS011;3954;52.624;9.212;2022-10-22T13:41:03;2.63;;;1.33;;
7817;SDS011;3954;52.624;9.212;2022-10-22T13:43:29;3.90;;;1.67;;
7817;SDS011;3954;52.624;9.212;2022-10-22T13:45:57;4.23;;;1.50;;
7817;SDS011;3954;52.624;9.212;2022-10-22T13:48:24;4.43;;;1.63;;
7817;SDS011;3954;52.624;9.212;2022-10-22T13:50:51;6.07;;;1.60;;
7817;SDS011;3954;52.624;9.212;2022-10-22T13:53:18;4.47;;;1.70;;
7817;SDS011;3954;52.624;9.212;2022-10-22T13:55:45;2.67;;;1.40;;
7817;SDS011;3954;52.624;9.212;2022-10-22T13:58:12;6.60;;;1.63;;
7817;SDS011;3954;52.624;9.212;2022-10-22T14:00:39;4.77;;;1.60;;
7817;SDS011;3954;52.624;9.212;2022-10-22T14:03:09;4.97;;;1.77;;
7817;SDS011;3954;52.624;9.212;2022-10-22T14:05:35;4.17;;;1.63;;
7817;SDS011;3954;52.624;9.212;2022-10-22T14:08:01;3.13;;;1.77;;
7817;SDS011;3954;52.624;9.212;2022-10-22T14:10:28;4.50;;;1.97;;
7817;SDS011;3954;52.624;9.212;2022-10-22T14:12:54;6.13;;;2.00;;
7817;SDS011;3954;52.624;9.212;2022-10-22T14:15:20;4.70;;;2.10;;
7817;SDS011;3954;52.624;9.212;2022-10-22T14:17:48;7.80;;;2.40;;
7817;SDS011;3954;52.624;9.212;2022-10-22T14:20:17;3.53;;;1.60;;
7817;SDS011;3954;52.624;9.212;2022-10-22T14:22:45;6.03;;;1.97;;
7817;SDS011;3954;52.624;9.212;2022-10-22T14:25:12;6.10;;;2.23;;
7817;SDS011;3954;52.624;9.212;2022-10-22T14:27:38;5.20;;;2.13;;
7817;SDS011;3954;52.624;9.212;2022-10-22T14:30:05;9.10;;;3.33;;
7817;SDS011;3954;52.624;9.212;2022-10-22T14:32:31;8.00;;;2.50;;
7817;SDS011;3954;52.624;9.212;2022-10-22T14:34:57;5.33;;;2.80;;
7817;SDS011;3954;52.624;9.212;2022-10-22T14:37:26;4.97;;;2.40;;
7817;SDS011;3954;52.624;9.212;2022-10-22T14:39:52;5.37;;;2.40;;
7817;SDS011;3954;52.624;9.212;2022-10-22T14:42:25;5.50;;;2.17;;
7817;SDS011;3954;52.624;9.212;2022-10-22T14:44:51;5.83;;;2.50;;
7817;SDS011;3954;52.624;9.212;2022-10-22T14:47:17;7.07;;;2.03;;
7817;SDS011;3954;52.624;9.212;2022-10-22T14:49:43;4.80;;;2.07;;
7817;SDS011;3954;52.624;9.212;2022-10-22T14:52:09;4.57;;;2.00;;
7817;SDS011;3954;52.624;9.212;2022-10-22T14:54:37;4.93;;;2.50;;
7817;SDS011;3954;52.624;9.212;2022-10-22T14:57:03;3.43;;;2.13;;
7817;SDS011;3954;52.624;9.212;2022-10-22T14:59:29;4.80;;;2.00;;
7817;SDS011;3954;52.624;9.212;2022-10-22T15:01:55;6.73;;;2.17;;
7817;SDS011;3954;52.624;9.212;2022-10-22T15:04:21;3.67;;;2.17;;
7817;SDS011;3954;52.624;9.212;2022-10-22T15:06:49;4.57;;;1.83;;
7817;SDS011;3954;52.624;9.212;2022-10-22T15:09:20;6.43;;;2.17;;
7817;SDS011;3954;52.624;9.212;2022-10-22T15:11:47;5.17;;;2.50;;
7817;SDS011;3954;52.624;9.212;2022-10-22T15:14:13;6.30;;;2.40;;
7817;SDS011;3954;52.624;9.212;2022-10-22T15:16:39;4.00;;;2.33;;
7817;SDS011;3954;52.624;9.212;2022-10-22T15:19:05;5.83;;;2.30;;
7817;SDS011;3954;52.624;9.212;2022-10-22T15:21:31;3.93;;;2.13;;
7817;SDS011;3954;52.624;9.212;2022-10-22T15:23:57;6.97;;;3.27;;
7817;SDS011;3954;52.624;9.212;2022-10-22T15:26:24;4.60;;;2.93;;
7817;SDS011;3954;52.624;9.212;2022-10-22T15:28:53;5.07;;;2.53;;
7817;SDS011;3954;52.624;9.212;2022-10-22T15:34:05;5.77;;;3.07;;